Shawbury (EGOS)

METAR

EGOS 181314Z 23014KT 9999 BKN024 18/12 Q1017 WHT NOSIG

QNH
1017
TEMP
18 °C
TAF

TAF TAF EGOS 171634Z 1718/1821 CNL